Pemigewasset River @ Plymouth, Nh

Pemmigewasset River at Plymouth
 Total Drainage Area: 622 sq. miles 
 Drainage Area Controlled by Corps Dams: 0 sq. miles (0%) 
 Warning Flow/Stage: 9,510 cfs / 8.0 feet 
 Flood Flow/Stage: 19,500 cfs / 13.0 feet 
Date Time
(Eastern)
Stage
(ft)
Flow
(cfs)
CSM
(cfs / sq. mi.)
Water Temp.
(F)
Jun-25 12:30 am 2.44 2,116 3.4 63.7
Jun-24 11:30 pm 2.50 2,207 3.6 64.0
Jun-24 10:30 pm 2.56 2,287 3.7 64.2
Jun-24 09:30 pm 2.62 2,369 3.8 64.3
Jun-24 08:30 pm 2.68 2,450 3.9 64.3
Jun-24 07:30 pm 2.75 2,547 4.1 64.2
Jun-24 06:30 pm 2.83 2,659 4.3 64.1
Jun-24 05:30 pm 2.90 2,757 4.4 64.0
Jun-24 04:30 pm 3.00 2,900 4.7 63.8
Jun-24 03:30 pm 3.09 3,007 4.8 63.6
Jun-24 02:30 pm 3.20 3,138 5.1 63.4
Jun-24 01:30 pm 3.30 3,258 5.2 63.0
Jun-24 12:30 pm 3.42 3,403 5.5 62.7
Jun-24 11:30 am 3.54 3,543 5.7 62.3
Jun-24 10:30 am 3.66 3,673 5.9 62.1
Jun-24 09:30 am 3.78 3,805 6.1 61.6
Jun-24 08:30 am 3.90 3,938 6.3 61.4
Jun-24 07:30 am 3.99 4,039 6.5 61.2
Jun-24 06:30 am 4.06 4,111 6.6 61.1
Jun-24 05:30 am 4.11 4,162 6.7 61.2
Jun-24 04:30 am 4.10 4,152 6.7 61.4
Jun-24 03:30 am 4.04 4,091 6.6 61.5
Jun-24 02:30 am 3.90 3,938 6.3 61.6
Jun-24 01:30 am 3.72 3,739 6.0 61.9
Jun-24 12:30 am 3.53 3,532 5.7 62.0
Report Generated June 25, 2024 05:02 am